sensor_id;sensor_type;location;lat;lon;timestamp;pressure;altitude;pressure_sealevel;temperature;humidity
25130;BME280;13308;50.860;13.664;2024-01-15T06:30:41;94770.84;;;-1.46;100.00
25130;BME280;13308;50.860;13.664;2024-01-15T06:33:07;94765.44;;;-1.46;100.00
25130;BME280;13308;50.860;13.664;2024-01-15T06:35:32;94759.25;;;-1.39;100.00
25130;BME280;13308;50.860;13.664;2024-01-15T06:37:59;94756.91;;;-1.34;100.00
25130;BME280;13308;50.860;13.664;2024-01-15T06:40:24;94753.78;;;-1.29;100.00
25130;BME280;13308;50.860;13.664;2024-01-15T06:42:50;94755.31;;;-1.24;100.00
25130;BME280;13308;50.860;13.664;2024-01-15T06:45:15;94776.91;;;-1.21;100.00
25130;BME280;13308;50.860;13.664;2024-01-15T06:47:40;94774.59;;;-1.19;100.00
25130;BME280;13308;50.860;13.664;2024-01-15T06:50:07;94763.38;;;-1.17;100.00
25130;BME280;13308;50.860;13.664;2024-01-15T06:52:32;94786.13;;;-1.11;100.00
25130;BME280;13308;50.860;13.664;2024-01-15T06:54:58;94764.47;;;-1.08;100.00
25130;BME280;13308;50.860;13.664;2024-01-15T06:57:23;94758.31;;;-1.08;100.00
25130;BME280;13308;50.860;13.664;2024-01-15T06:59:48;94742.88;;;-1.11;100.00
25130;BME280;13308;50.860;13.664;2024-01-15T07:02:14;94764.47;;;-1.08;100.00
25130;BME280;13308;50.860;13.664;2024-01-15T07:04:39;94756.81;;;-1.13;100.00
25130;BME280;13308;50.860;13.664;2024-01-15T07:07:04;94764.16;;;-1.17;100.00
25130;BME280;13308;50.860;13.664;2024-01-15T07:09:30;94763.75;;;-1.12;100.00
25130;BME280;13308;50.860;13.664;2024-01-15T07:11:55;94756.03;;;-1.13;100.00
25130;BME280;13308;50.860;13.664;2024-01-15T07:14:22;94755.69;;;-1.19;100.00
25130;BME280;13308;50.860;13.664;2024-01-15T07:16:48;94763.78;;;-1.19;100.00
25130;BME280;13308;50.860;13.664;2024-01-15T07:19:13;94763.00;;;-1.16;100.00
25130;BME280;13308;50.860;13.664;2024-01-15T07:21:38;94758.34;;;-1.12;100.00
25130;BME280;13308;50.860;13.664;2024-01-15T07:24:05;94759.47;;;-1.06;100.00
25130;BME280;13308;50.860;13.664;2024-01-15T07:26:30;94773.00;;;-1.06;100.00
25130;BME280;13308;50.860;13.664;2024-01-15T07:28:56;94764.47;;;-1.08;100.00
25130;BME280;13308;50.860;13.664;2024-01-15T07:31:21;94771.78;;;-0.98;100.00
25130;BME280;13308;50.860;13.664;2024-01-15T07:33:47;94782.97;;;-0.96;100.00
25130;BME280;13308;50.860;13.664;2024-01-15T07:36:12;94769.09;;;-0.98;100.00
25130;BME280;13308;50.860;13.664;2024-01-15T07:38:37;94778.38;;;-0.99;100.00
25130;BME280;13308;50.860;13.664;2024-01-15T07:41:03;94791.47;;;-0.94;100.00
25130;BME280;13308;50.860;13.664;2024-01-15T07:43:29;94783.34;;;-0.90;100.00
25130;BME280;13308;50.860;13.664;2024-01-15T07:45:54;94790.66;;;-0.87;100.00
25130;BME280;13308;50.860;13.664;2024-01-15T07:48:19;94790.28;;;-0.86;100.00
25130;BME280;13308;50.860;13.664;2024-01-15T07:50:45;94812.25;;;-0.77;100.00
25130;BME280;13308;50.860;13.664;2024-01-15T07:53:11;94814.97;;;-0.80;100.00
25130;BME280;13308;50.860;13.664;2024-01-15T07:55:36;94793.72;;;-0.82;100.00
25130;BME280;13308;50.860;13.664;2024-01-15T07:58:01;94814.53;;;-0.72;100.00
25130;BME280;13308;50.860;13.664;2024-01-15T08:00:27;94789.03;;;-0.71;100.00
25130;BME280;13308;50.860;13.664;2024-01-15T08:02:52;94802.94;;;-0.69;100.00
25130;BME280;13308;50.860;13.664;2024-01-15T08:05:18;94793.25;;;-0.66;100.00
25130;BME280;13308;50.860;13.664;2024-01-15T08:07:43;94803.63;;;-0.58;100.00
25130;BME280;13308;50.860;13.664;2024-01-15T08:10:09;94800.97;;;-0.65;100.00
25130;BME280;13308;50.860;13.664;2024-01-15T08:12:34;94789.75;;;-0.63;100.00
25130;BME280;13308;50.860;13.664;2024-01-15T08:14:59;94800.56;;;-0.63;100.00
25130;BME280;13308;50.860;13.664;2024-01-15T08:17:25;94799.41;;;-0.66;100.00
25130;BME280;13308;50.860;13.664;2024-01-15T08:19:54;94786.28;;;-0.64;100.00
25130;BME280;13308;50.860;13.664;2024-01-15T08:22:19;94785.16;;;-0.70;100.00
25130;BME280;13308;50.860;13.664;2024-01-15T08:24:45;94797.84;;;-0.63;100.00
25130;BME280;13308;50.860;13.664;2024-01-15T08:27:10;94791.69;;;-0.64;100.00
25130;BME280;13308;50.860;13.664;2024-01-15T08:29:36;94805.22;;;-0.64;100.00
25130;BME280;13308;50.860;13.664;2024-01-15T08:32:01;94795.53;;;-0.58;100.00
25130;BME280;13308;50.860;13.664;2024-01-15T08:34:26;94796.69;;;-0.59;100.00
25130;BME280;13308;50.860;13.664;2024-01-15T08:36:52;94806.72;;;-0.56;100.00
25130;BME280;13308;50.860;13.664;2024-01-15T08:39:17;94795.53;;;-0.58;100.00
25130;BME280;13308;50.860;13.664;2024-01-15T08:41:44;94803.63;;;-0.54;100.00
25130;BME280;13308;50.860;13.664;2024-01-15T08:44:10;94808.22;;;-0.51;100.00
25130;BME280;13308;50.860;13.664;2024-01-15T08:46:35;94798.88;;;-0.40;100.00
25130;BME280;13308;50.860;13.664;2024-01-15T08:49:00;94819.78;;;-0.44;100.00
25130;BME280;13308;50.860;13.664;2024-01-15T08:51:25;94812.03;;;-0.42;100.00
25130;BME280;13308;50.860;13.664;2024-01-15T08:53:51;94818.25;;;-0.45;100.00
25130;BME280;13308;50.860;13.664;2024-01-15T08:56:17;94826.69;;;-0.32;100.00
25130;BME280;13308;50.860;13.664;2024-01-15T08:58:42;94819.69;;;-0.26;100.00
25130;BME280;13308;50.860;13.664;2024-01-15T09:01:07;94818.09;;;-0.24;100.00
25130;BME280;13308;50.860;13.664;2024-01-15T09:03:33;94812.34;;;-0.29;100.00
25130;BME280;13308;50.860;13.664;2024-01-15T09:05:59;94800.34;;;-0.28;100.00
25130;BME280;13308;50.860;13.664;2024-01-15T09:08:24;94814.25;;;-0.26;100.00
25130;BME280;13308;50.860;13.664;2024-01-15T09:10:50;94824.31;;;-0.27;100.00
25130;BME280;13308;50.860;13.664;2024-01-15T09:13:15;94807.25;;;-0.20;100.00
25130;BME280;13308;50.860;13.664;2024-01-15T09:15:42;94818.06;;;-0.17;100.00
25130;BME280;13308;50.860;13.664;2024-01-15T09:18:07;94817.16;;;-0.04;100.00
25130;BME280;13308;50.860;13.664;2024-01-15T09:20:33;94811.66;;;0.07;100.00
25130;BME280;13308;50.860;13.664;2024-01-15T09:22:58;94811.19;;;0.19;100.00
25130;BME280;13308;50.860;13.664;2024-01-15T09:25:23;94823.94;;;0.18;100.00
25130;BME280;13308;50.860;13.664;2024-01-15T09:27:49;94816.91;;;0.24;100.00
25130;BME280;13308;50.860;13.664;2024-01-15T09:30:14;94829.38;;;0.18;100.00
25130;BME280;13308;50.860;13.664;2024-01-15T09:32:41;94820.91;;;0.13;100.00
25130;BME280;13308;50.860;13.664;2024-01-15T09:35:06;94825.56;;;0.09;100.00
25130;BME280;13308;50.860;13.664;2024-01-15T09:37:32;94836.41;;;0.09;100.00
25130;BME280;13308;50.860;13.664;2024-01-15T09:39:57;94834.91;;;0.04;100.00
25130;BME280;13308;50.860;13.664;2024-01-15T09:42:24;94837.88;;;0.17;100.00
25130;BME280;13308;50.860;13.664;2024-01-15T09:44:50;94830.91;;;0.19;100.00
25130;BME280;13308;50.860;13.664;2024-01-15T09:47:17;94836.53;;;0.39;100.00
25130;BME280;13308;50.860;13.664;2024-01-15T09:49:43;94826.63;;;0.22;100.00
25130;BME280;13308;50.860;13.664;2024-01-15T09:52:09;94847.94;;;0.20;100.00
25130;BME280;13308;50.860;13.664;2024-01-15T09:54:36;94837.88;;;0.17;100.00
25130;BME280;13308;50.860;13.664;2024-01-15T09:57:01;94828.03;;;0.37;100.00
25130;BME280;13308;50.860;13.664;2024-01-15T09:59:27;94839.25;;;0.39;100.00
25130;BME280;13308;50.860;13.664;2024-01-15T10:01:53;94832.38;;;0.68;100.00
25130;BME280;13308;50.860;13.664;2024-01-15T10:04:20;94825.84;;;0.62;100.00
25130;BME280;13308;50.860;13.664;2024-01-15T10:06:46;94817.16;;;0.40;100.00
25130;BME280;13308;50.860;13.664;2024-01-15T10:09:13;94815.16;;;0.48;100.00
25130;BME280;13308;50.860;13.664;2024-01-15T10:11:42;94825.16;;;0.54;100.00
25130;BME280;13308;50.860;13.664;2024-01-15T10:14:09;94824.41;;;0.54;100.00
25130;BME280;13308;50.860;13.664;2024-01-15T10:16:37;94809.34;;;0.46;100.00
25130;BME280;13308;50.860;13.664;2024-01-15T10:19:03;94826.75;;;0.48;100.00
25130;BME280;13308;50.860;13.664;2024-01-15T10:21:28;94829.88;;;0.47;100.00
25130;BME280;13308;50.860;13.664;2024-01-15T10:23:53;94822.19;;;0.42;100.00
25130;BME280;13308;50.860;13.664;2024-01-15T10:26:24;94844.69;;;0.35;100.00
25130;BME280;13308;50.860;13.664;2024-01-15T10:28:50;94828.91;;;0.27;100.00
25130;BME280;13308;50.860;13.664;2024-01-15T10:31:17;94839.31;;;0.32;100.00
25130;BME280;13308;50.860;13.664;2024-01-15T10:33:44;94824.59;;;0.33;100.00
25130;BME280;13308;50.860;13.664;2024-01-15T10:36:10;94826.78;;;0.45;100.00
25130;BME280;13308;50.860;13.664;2024-01-15T10:38:36;94816.63;;;0.56;100.00
25130;BME280;13308;50.860;13.664;2024-01-15T10:41:02;94805.03;;;0.52;100.00
25130;BME280;13308;50.860;13.664;2024-01-15T10:43:27;94806.28;;;0.44;100.00
25130;BME280;13308;50.860;13.664;2024-01-15T10:45:52;94791.56;;;0.45;100.00
25130;BME280;13308;50.860;13.664;2024-01-15T10:48:18;94797.16;;;0.64;100.00
25130;BME280;13308;50.860;13.664;2024-01-15T10:50:45;94809.38;;;0.79;100.00
25130;BME280;13308;50.860;13.664;2024-01-15T10:53:13;94800.94;;;0.74;100.00
25130;BME280;13308;50.860;13.664;2024-01-15T10:55:39;94792.47;;;0.68;100.00
25130;BME280;13308;50.860;13.664;2024-01-15T10:58:07;94787.75;;;0.72;100.00
25130;BME280;13308;50.860;13.664;2024-01-15T11:00:36;94791.63;;;0.75;100.00
25130;BME280;13308;50.860;13.664;2024-01-15T11:03:03;94793.44;;;0.85;99.90
25130;BME280;13308;50.860;13.664;2024-01-15T11:05:34;94790.34;;;0.83;98.51
25130;BME280;13308;50.860;13.664;2024-01-15T11:08:01;94784.94;;;1.13;98.42
25130;BME280;13308;50.860;13.664;2024-01-15T11:10:48;94780.84;;;1.58;96.87
25130;BME280;13308;50.860;13.664;2024-01-15T11:13:20;94781.56;;;1.35;95.85
25130;BME280;13308;50.860;13.664;2024-01-15T11:18:20;94786.50;;;1.14;96.74
25130;BME280;13308;50.860;13.664;2024-01-15T11:23:54;94796.97;;;1.12;97.06
25130;BME280;13308;50.860;13.664;2024-01-15T11:26:28;94794.09;;;0.96;97.67
25130;BME280;13308;50.860;13.664;2024-01-15T11:28:57;94792.72;;;1.11;97.85
25130;BME280;13308;50.860;13.664;2024-01-15T11:31:56;94802.69;;;0.91;97.25
25130;BME280;13308;50.860;13.664;2024-01-15T11:34:15;94799.22;;;0.87;98.10
25130;BME280;13308;50.860;13.664;2024-01-15T11:41:54;94790.66;;;0.92;98.46
25130;BME280;13308;50.860;13.664;2024-01-15T11:44:20;94789.03;;;0.98;97.95
25130;BME280;13308;50.860;13.664;2024-01-15T11:47:09;94785.16;;;0.95;97.95
25130;BME280;13308;50.860;13.664;2024-01-15T11:50:02;94778.06;;;1.05;96.69
25130;BME280;13308;50.860;13.664;2024-01-15T11:52:34;94785.00;;;1.09;96.98
25130;BME280;13308;50.860;13.664;2024-01-15T11:55:05;94777.34;;;1.01;97.95
25130;BME280;13308;50.860;13.664;2024-01-15T11:57:40;94765.91;;;0.86;98.11
25130;BME280;13308;50.860;13.664;2024-01-15T12:00:09;94766.13;;;0.69;98.60
25130;BME280;13308;50.860;13.664;2024-01-15T12:03:13;94744.97;;;0.87;99.64
25130;BME280;13308;50.860;13.664;2024-01-15T12:05:39;94750.53;;;0.76;98.36
25130;BME280;13308;50.860;13.664;2024-01-15T12:08:04;94770.97;;;0.84;98.34
25130;BME280;13308;50.860;13.664;2024-01-15T12:10:39;94774.00;;;0.90;98.18
25130;BME280;13308;50.860;13.664;2024-01-15T12:13:15;94766.03;;;0.76;98.28
25130;BME280;13308;50.860;13.664;2024-01-15T12:15:43;94750.13;;;0.78;97.80
25130;BME280;13308;50.860;13.664;2024-01-15T12:18:10;94749.59;;;0.90;98.73
25130;BME280;13308;50.860;13.664;2024-01-15T12:20:35;94745.84;;;0.77;98.60
25130;BME280;13308;50.860;13.664;2024-01-15T12:23:01;94749.72;;;0.79;99.43
25130;BME280;13308;50.860;13.664;2024-01-15T12:25:31;94746.34;;;0.72;98.95
25130;BME280;13308;50.860;13.664;2024-01-15T12:27:58;94745.84;;;0.77;99.34
25130;BME280;13308;50.860;13.664;2024-01-15T12:30:26;94755.19;;;0.76;99.46
25130;BME280;13308;50.860;13.664;2024-01-15T12:32:51;94747.34;;;0.85;100.00
25130;BME280;13308;50.860;13.664;2024-01-15T12:35:16;94750.94;;;0.75;100.00
25130;BME280;13308;50.860;13.664;2024-01-15T12:37:43;94748.22;;;0.75;100.00
25130;BME280;13308;50.860;13.664;2024-01-15T12:40:10;94742.88;;;0.68;100.00
25130;BME280;13308;50.860;13.664;2024-01-15T12:42:36;94746.03;;;0.63;100.00
25130;BME280;13308;50.860;13.664;2024-01-15T12:45:03;94749.94;;;0.62;100.00
25130;BME280;13308;50.860;13.664;2024-01-15T12:47:30;94745.69;;;0.61;100.00
25130;BME280;13308;50.860;13.664;2024-01-15T12:49:57;94754.69;;;0.51;100.00
25130;BME280;13308;50.860;13.664;2024-01-15T12:52:22;94751.41;;;0.33;100.00
25130;BME280;13308;50.860;13.664;2024-01-15T12:54:49;94758.38;;;0.34;100.00
25130;BME280;13308;50.860;13.664;2024-01-15T12:57:15;94748.69;;;0.33;100.00
25130;BME280;13308;50.860;13.664;2024-01-15T12:59:40;94749.72;;;0.09;100.00
25130;BME280;13308;50.860;13.664;2024-01-15T13:02:05;94744.22;;;0.16;100.00
25130;BME280;13308;50.860;13.664;2024-01-15T13:04:30;94746.56;;;0.14;100.00
25130;BME280;13308;50.860;13.664;2024-01-15T13:06:56;94749.34;;;0.07;100.00
25130;BME280;13308;50.860;13.664;2024-01-15T13:09:22;94754.34;;;0.12;100.00
25130;BME280;13308;50.860;13.664;2024-01-15T13:11:47;94749.03;;;-0.02;100.00
25130;BME280;13308;50.860;13.664;2024-01-15T13:14:13;94743.94;;;0.07;100.00
25130;BME280;13308;50.860;13.664;2024-01-15T13:16:42;94752.16;;;-0.04;100.00
25130;BME280;13308;50.860;13.664;2024-01-15T13:19:10;94738.38;;;-0.19;100.00
25130;BME280;13308;50.860;13.664;2024-01-15T13:21:41;94740.31;;;-0.20;100.00
25130;BME280;13308;50.860;13.664;2024-01-15T13:24:07;94748.44;;;-0.20;100.00
25130;BME280;13308;50.860;13.664;2024-01-15T13:26:33;94743.00;;;-0.20;100.00
25130;BME280;13308;50.860;13.664;2024-01-15T13:29:00;94752.59;;;-0.12;100.00
25130;BME280;13308;50.860;13.664;2024-01-15T13:31:26;94750.31;;;-0.13;100.00
25130;BME280;13308;50.860;13.664;2024-01-15T13:33:52;94749.91;;;-0.12;100.00
25130;BME280;13308;50.860;13.664;2024-01-15T13:36:17;94749.91;;;-0.12;100.00
25130;BME280;13308;50.860;13.664;2024-01-15T13:38:42;94745.97;;;-0.04;100.00
25130;BME280;13308;50.860;13.664;2024-01-15T13:41:08;94748.28;;;-0.06;100.00
25130;BME280;13308;50.860;13.664;2024-01-15T13:43:33;94761.88;;;-0.10;100.00
25130;BME280;13308;50.860;13.664;2024-01-15T13:46:00;94753.72;;;-0.06;100.00
25130;BME280;13308;50.860;13.664;2024-01-15T13:48:25;94754.53;;;-0.09;100.00
25130;BME280;13308;50.860;13.664;2024-01-15T13:50:52;94762.31;;;-0.18;100.00
25130;BME280;13308;50.860;13.664;2024-01-15T13:53:17;94753.75;;;-0.10;100.00
25130;BME280;13308;50.860;13.664;2024-01-15T13:55:44;94754.56;;;-0.13;100.00
25130;BME280;13308;50.860;13.664;2024-01-15T13:58:09;94756.03;;;-0.05;100.00
25130;BME280;13308;50.860;13.664;2024-01-15T14:00:35;94760.03;;;-0.19;100.00
25130;BME280;13308;50.860;13.664;2024-01-15T14:03:00;94763.22;;;-0.28;100.00
25130;BME280;13308;50.860;13.664;2024-01-15T14:05:25;94764.00;;;-0.31;100.00
25130;BME280;13308;50.860;13.664;2024-01-15T14:07:51;94761.25;;;-0.28;100.00
25130;BME280;13308;50.860;13.664;2024-01-15T14:10:16;94759.81;;;-0.39;100.00
25130;BME280;13308;50.860;13.664;2024-01-15T14:12:42;94761.75;;;-0.43;100.00
25130;BME280;13308;50.860;13.664;2024-01-15T14:15:08;94770.63;;;-0.39;100.00
25130;BME280;13308;50.860;13.664;2024-01-15T14:17:34;94771.84;;;-0.43;100.00
25130;BME280;13308;50.860;13.664;2024-01-15T14:19:59;94773.75;;;-0.44;100.00
25130;BME280;13308;50.860;13.664;2024-01-15T14:22:25;94773.00;;;-0.48;100.00
25130;BME280;13308;50.860;13.664;2024-01-15T14:24:50;94768.03;;;-0.53;100.00
25130;BME280;13308;50.860;13.664;2024-01-15T14:27:16;94769.63;;;-0.59;100.00
25130;BME280;13308;50.860;13.664;2024-01-15T14:29:41;94766.53;;;-0.61;100.00
25130;BME280;13308;50.860;13.664;2024-01-15T14:32:07;94775.47;;;-0.64;100.00
25130;BME280;13308;50.860;13.664;2024-01-15T14:34:32;94792.44;;;-0.63;100.00
25130;BME280;13308;50.860;13.664;2024-01-15T14:36:57;94790.50;;;-0.59;100.00
25130;BME280;13308;50.860;13.664;2024-01-15T14:39:23;94787.88;;;-0.70;100.00
25130;BME280;13308;50.860;13.664;2024-01-15T14:41:48;94793.66;;;-0.71;100.00
25130;BME280;13308;50.860;13.664;2024-01-15T14:44:14;94779.00;;;-0.77;100.00
25130;BME280;13308;50.860;13.664;2024-01-15T14:46:40;94784.41;;;-0.74;100.00
25130;BME280;13308;50.860;13.664;2024-01-15T14:49:05;94797.13;;;-0.67;100.00
25130;BME280;13308;50.860;13.664;2024-01-15T14:51:30;94790.19;;;-0.72;100.00
25130;BME280;13308;50.860;13.664;2024-01-15T14:53:56;94789.06;;;-0.78;100.00
25130;BME280;13308;50.860;13.664;2024-01-15T14:56:22;94796.03;;;-0.84;100.00
25130;BME280;13308;50.860;13.664;2024-01-15T14:58:47;94795.28;;;-0.81;100.00
25130;BME280;13308;50.860;13.664;2024-01-15T15:01:12;94778.63;;;-0.76;100.00
25130;BME280;13308;50.860;13.664;2024-01-15T15:03:38;94787.47;;;-0.72;100.00
25130;BME280;13308;50.860;13.664;2024-01-15T15:06:04;94787.44;;;-0.68;100.00
25130;BME280;13308;50.860;13.664;2024-01-15T15:08:29;94781.22;;;-0.62;100.00
25130;BME280;13308;50.860;13.664;2024-01-15T15:10:54;94801.34;;;-0.63;100.00
25130;BME280;13308;50.860;13.664;2024-01-15T15:13:22;94792.06;;;-0.62;100.00
25130;BME280;13308;50.860;13.664;2024-01-15T15:15:48;94795.13;;;-0.60;100.00
25130;BME280;13308;50.860;13.664;2024-01-15T15:18:13;94803.28;;;-0.63;100.00
25130;BME280;13308;50.860;13.664;2024-01-15T15:20:38;94806.75;;;-0.63;100.00
25130;BME280;13308;50.860;13.664;2024-01-15T15:23:04;94824.53;;;-0.62;100.00
25130;BME280;13308;50.860;13.664;2024-01-15T15:25:33;94812.59;;;-0.68;100.00
25130;BME280;13308;50.860;13.664;2024-01-15T15:27:58;94819.16;;;-0.69;100.00
25130;BME280;13308;50.860;13.664;2024-01-15T15:30:23;94829.19;;;-0.66;100.00
25130;BME280;13308;50.860;13.664;2024-01-15T15:32:49;94822.22;;;-0.67;100.00
25130;BME280;13308;50.860;13.664;2024-01-15T15:35:14;94823.75;;;-0.59;100.00
25130;BME280;13308;50.860;13.664;2024-01-15T15:37:39;94813.31;;;-0.60;100.00
25130;BME280;13308;50.860;13.664;2024-01-15T15:40:05;94827.66;;;-0.67;100.00
25130;BME280;13308;50.860;13.664;2024-01-15T15:42:33;94833.03;;;-0.63;100.00
25130;BME280;13308;50.860;13.664;2024-01-15T15:44:58;94818.38;;;-0.62;100.00
25130;BME280;13308;50.860;13.664;2024-01-15T15:47:24;94825.69;;;-0.63;100.00
25130;BME280;13308;50.860;13.664;2024-01-15T15:49:49;94826.09;;;-0.68;100.00
25130;BME280;13308;50.860;13.664;2024-01-15T15:52:15;94818.81;;;-0.71;100.00
25130;BME280;13308;50.860;13.664;2024-01-15T15:54:40;94836.56;;;-0.70;100.00
25130;BME280;13308;50.860;13.664;2024-01-15T15:57:05;94841.97;;;-0.70;100.00
25130;BME280;13308;50.860;13.664;2024-01-15T15:59:30;94840.84;;;-0.72;100.00
25130;BME280;13308;50.860;13.664;2024-01-15T16:01:56;94843.06;;;-0.57;100.00
25130;BME280;13308;50.860;13.664;2024-01-15T16:04:21;94846.19;;;-0.62;100.00
25130;BME280;13308;50.860;13.664;2024-01-15T16:06:47;94851.56;;;-0.58;100.00
25130;BME280;13308;50.860;13.664;2024-01-15T16:09:12;94857.38;;;-0.60;100.00
25130;BME280;13308;50.860;13.664;2024-01-15T16:11:39;94857.75;;;-0.58;100.00
25130;BME280;13308;50.860;13.664;2024-01-15T16:14:04;94853.88;;;-0.53;100.00
25130;BME280;13308;50.860;13.664;2024-01-15T16:16:33;94851.53;;;-0.51;100.00
25130;BME280;13308;50.860;13.664;2024-01-15T16:18:58;94860.06;;;-0.53;100.00
25130;BME280;13308;50.860;13.664;2024-01-15T16:21:24;94866.63;;;-0.54;100.00
25130;BME280;13308;50.860;13.664;2024-01-15T16:23:50;94866.28;;;-0.59;100.00
25130;BME280;13308;50.860;13.664;2024-01-15T16:26:15;94872.47;;;-0.66;100.00
25130;BME280;13308;50.860;13.664;2024-01-15T16:28:41;94878.25;;;-0.60;100.00
25130;BME280;13308;50.860;13.664;2024-01-15T16:31:06;94877.88;;;-0.59;100.00
25130;BME280;13308;50.860;13.664;2024-01-15T16:33:31;94886.75;;;-0.58;100.00
25130;BME280;13308;50.860;13.664;2024-01-15T16:35:56;94876.31;;;-0.60;100.00
25130;BME280;13308;50.860;13.664;2024-01-15T16:38:22;94878.63;;;-0.55;100.00
25130;BME280;13308;50.860;13.664;2024-01-15T16:40:48;94872.03;;;-0.54;100.00
25130;BME280;13308;50.860;13.664;2024-01-15T16:43:13;94876.28;;;-0.49;100.00
25130;BME280;13308;50.860;13.664;2024-01-15T16:45:39;94885.56;;;-0.50;100.00
25130;BME280;13308;50.860;13.664;2024-01-15T16:48:05;94888.66;;;-0.52;100.00
25130;BME280;13308;50.860;13.664;2024-01-15T16:50:30;94883.97;;;-0.48;100.00
25130;BME280;13308;50.860;13.664;2024-01-15T16:52:55;94885.19;;;-0.56;100.00
25130;BME280;13308;50.860;13.664;2024-01-15T16:55:21;94896.41;;;-0.50;100.00
25130;BME280;13308;50.860;13.664;2024-01-15T16:57:46;94905.63;;;-0.41;100.00
25130;BME280;13308;50.860;13.664;2024-01-15T17:00:12;94890.09;;;-0.33;100.00
25130;BME280;13308;50.860;13.664;2024-01-15T17:02:37;94892.84;;;-0.40;100.00
25130;BME280;13308;50.860;13.664;2024-01-15T17:05:03;94890.94;;;-0.43;100.00
25130;BME280;13308;50.860;13.664;2024-01-15T17:07:28;94886.28;;;-0.43;100.00
25130;BME280;13308;50.860;13.664;2024-01-15T17:09:54;94903.66;;;-0.37;100.00
25130;BME280;13308;50.860;13.664;2024-01-15T17:12:19;94900.97;;;-0.40;100.00
25130;BME280;13308;50.860;13.664;2024-01-15T17:14:46;94897.09;;;-0.43;100.00
25130;BME280;13308;50.860;13.664;2024-01-15T17:17:11;94904.91;;;-0.52;100.00
25130;BME280;13308;50.860;13.664;2024-01-15T17:19:38;94900.25;;;-0.55;100.00
25130;BME280;13308;50.860;13.664;2024-01-15T17:22:04;94910.34;;;-0.55;100.00
25130;BME280;13308;50.860;13.664;2024-01-15T17:24:29;94906.50;;;-0.61;100.00
25130;BME280;13308;50.860;13.664;2024-01-15T17:26:55;94917.28;;;-0.54;100.00
25130;BME280;13308;50.860;13.664;2024-01-15T17:29:20;94910.72;;;-0.57;100.00
25130;BME280;13308;50.860;13.664;2024-01-15T17:31:47;94908.81;;;-0.56;100.00
25130;BME280;13308;50.860;13.664;2024-01-15T17:34:13;94909.16;;;-0.51;100.00
25130;BME280;13308;50.860;13.664;2024-01-15T17:36:38;94912.63;;;-0.50;100.00
25130;BME280;13308;50.860;13.664;2024-01-15T17:39:04;94924.63;;;-0.55;100.00
25130;BME280;13308;50.860;13.664;2024-01-15T17:41:31;94920.75;;;-0.54;100.00
25130;BME280;13308;50.860;13.664;2024-01-15T17:43:58;94923.91;;;-0.62;100.00
25130;BME280;13308;50.860;13.664;2024-01-15T17:46:24;94919.66;;;-0.70;100.00
25130;BME280;13308;50.860;13.664;2024-01-15T17:48:49;94910.41;;;-0.73;100.00
25130;BME280;13308;50.860;13.664;2024-01-15T17:51:18;94921.22;;;-0.76;100.00
25130;BME280;13308;50.860;13.664;2024-01-15T17:53:44;94922.75;;;-0.65;100.00
25130;BME280;13308;50.860;13.664;2024-01-15T17:56:10;94927.78;;;-0.67;100.00
25130;BME280;13308;50.860;13.664;2024-01-15T17:58:35;94941.31;;;-0.74;100.00
25130;BME280;13308;50.860;13.664;2024-01-15T18:01:00;94935.13;;;-0.67;100.00
25130;BME280;13308;50.860;13.664;2024-01-15T18:03:27;94940.53;;;-0.67;100.00
25130;BME280;13308;50.860;13.664;2024-01-15T18:05:53;94949.81;;;-0.72;100.00
25130;BME280;13308;50.860;13.664;2024-01-15T18:08:19;94940.91;;;-0.62;100.00
25130;BME280;13308;50.860;13.664;2024-01-15T18:10:44;94938.19;;;-0.62;100.00
25130;BME280;13308;50.860;13.664;2024-01-15T18:13:10;94948.63;;;-0.57;100.00
25130;BME280;13308;50.860;13.664;2024-01-15T18:15:36;94932.03;;;-0.69;100.00
25130;BME280;13308;50.860;13.664;2024-01-15T18:18:01;94936.63;;;-0.56;100.00
25130;BME280;13308;50.860;13.664;2024-01-15T18:20:27;94942.03;;;-0.59;100.00
25130;BME280;13308;50.860;13.664;2024-01-15T18:22:52;94939.72;;;-0.57;100.00
25130;BME280;13308;50.860;13.664;2024-01-15T18:25:18;94938.97;;;-0.61;100.00
25130;BME280;13308;50.860;13.664;2024-01-15T18:27:44;94946.72;;;-0.67;100.00
25130;BME280;13308;50.860;13.664;2024-01-15T18:30:10;94940.13;;;-0.66;100.00
25130;BME280;13308;50.860;13.664;2024-01-15T18:32:37;94946.72;;;-0.70;100.00
25130;BME280;13308;50.860;13.664;2024-01-15T18:35:02;94954.47;;;-0.69;100.00
25130;BME280;13308;50.860;13.664;2024-01-15T18:37:28;94956.41;;;-0.76;100.00
25130;BME280;13308;50.860;13.664;2024-01-15T18:39:53;94957.94;;;-0.72;100.00
25130;BME280;13308;50.860;13.664;2024-01-15T18:42:19;94956.38;;;-0.73;100.00
25130;BME280;13308;50.860;13.664;2024-01-15T18:44:44;94969.91;;;-0.66;100.00
25130;BME280;13308;50.860;13.664;2024-01-15T18:47:10;94953.28;;;-0.68;100.00
25130;BME280;13308;50.860;13.664;2024-01-15T18:49:35;94961.41;;;-0.68;100.00
25130;BME280;13308;50.860;13.664;2024-01-15T18:52:01;94965.66;;;-0.67;100.00
25130;BME280;13308;50.860;13.664;2024-01-15T18:54:26;94961.78;;;-0.66;100.00
25130;BME280;13308;50.860;13.664;2024-01-15T18:56:52;94968.34;;;-0.67;100.00
25130;BME280;13308;50.860;13.664;2024-01-15T18:59:18;94965.66;;;-0.67;100.00
25130;BME280;13308;50.860;13.664;2024-01-15T19:01:44;94956.38;;;-0.66;100.00
25130;BME280;13308;50.860;13.664;2024-01-15T19:04:09;94963.72;;;-0.63;100.00
25130;BME280;13308;50.860;13.664;2024-01-15T19:06:37;94965.25;;;-0.62;100.00
25130;BME280;13308;50.860;13.664;2024-01-15T19:09:02;94958.66;;;-0.61;100.00
25130;BME280;13308;50.860;13.664;2024-01-15T19:11:28;94968.75;;;-0.61;100.00
25130;BME280;13308;50.860;13.664;2024-01-15T19:13:54;94966.78;;;-0.61;100.00
25130;BME280;13308;50.860;13.664;2024-01-15T19:16:19;94980.34;;;-0.71;100.00
25130;BME280;13308;50.860;13.664;2024-01-15T19:18:50;94974.97;;;-0.82;100.00